sensor_id;sensor_type;location;lat;lon;timestamp;P1;durP1;ratioP1;P2;durP2;ratioP2
24713;SDS011;12820;51.580;5.010;2024-02-14T00:01:14;18.75;;;12.25;;
24713;SDS011;12820;51.580;5.010;2024-02-14T00:06:17;18.48;;;13.18;;
24713;SDS011;12820;51.580;5.010;2024-02-14T00:11:20;16.58;;;12.65;;
24713;SDS011;12820;51.580;5.010;2024-02-14T00:16:23;19.02;;;13.00;;
24713;SDS011;12820;51.580;5.010;2024-02-14T00:21:25;17.42;;;12.65;;
24713;SDS011;12820;51.580;5.010;2024-02-14T00:26:27;16.10;;;12.90;;
24713;SDS011;12820;51.580;5.010;2024-02-14T00:31:29;19.67;;;12.60;;
24713;SDS011;12820;51.580;5.010;2024-02-14T00:36:32;15.98;;;12.57;;
24713;SDS011;12820;51.580;5.010;2024-02-14T00:41:34;17.98;;;12.57;;
24713;SDS011;12820;51.580;5.010;2024-02-14T00:46:37;16.13;;;12.90;;
24713;SDS011;12820;51.580;5.010;2024-02-14T00:51:39;18.27;;;12.35;;
24713;SDS011;12820;51.580;5.010;2024-02-14T00:56:42;19.77;;;12.05;;
24713;SDS011;12820;51.580;5.010;2024-02-14T01:09:07;18.60;;;12.88;;
24713;SDS011;12820;51.580;5.010;2024-02-14T01:50:24;15.52;;;12.35;;
24713;SDS011;12820;51.580;5.010;2024-02-14T01:55:31;18.10;;;13.65;;
24713;SDS011;12820;51.580;5.010;2024-02-14T02:07:14;17.35;;;13.65;;
24713;SDS011;12820;51.580;5.010;2024-02-14T02:12:17;20.88;;;13.77;;
24713;SDS011;12820;51.580;5.010;2024-02-14T02:17:19;17.98;;;13.00;;
24713;SDS011;12820;51.580;5.010;2024-02-14T02:22:21;21.90;;;14.60;;
24713;SDS011;12820;51.580;5.010;2024-02-14T02:27:23;22.13;;;15.93;;
24713;SDS011;12820;51.580;5.010;2024-02-14T03:26:00;21.40;;;16.08;;
24713;SDS011;12820;51.580;5.010;2024-02-14T03:31:02;21.58;;;15.38;;
24713;SDS011;12820;51.580;5.010;2024-02-14T03:36:05;22.23;;;15.60;;
24713;SDS011;12820;51.580;5.010;2024-02-14T03:54:30;19.55;;;14.85;;
24713;SDS011;12820;51.580;5.010;2024-02-14T03:59:32;21.33;;;15.20;;
24713;SDS011;12820;51.580;5.010;2024-02-14T04:04:37;20.98;;;14.20;;
24713;SDS011;12820;51.580;5.010;2024-02-14T04:09:41;17.23;;;13.43;;
24713;SDS011;12820;51.580;5.010;2024-02-14T04:14:43;23.55;;;14.27;;
24713;SDS011;12820;51.580;5.010;2024-02-14T04:19:46;16.58;;;13.93;;
24713;SDS011;12820;51.580;5.010;2024-02-14T04:24:48;26.40;;;15.35;;
24713;SDS011;12820;51.580;5.010;2024-02-14T04:29:50;20.88;;;14.55;;
24713;SDS011;12820;51.580;5.010;2024-02-14T04:34:52;22.73;;;14.75;;
24713;SDS011;12820;51.580;5.010;2024-02-14T04:39:55;24.05;;;15.45;;
24713;SDS011;12820;51.580;5.010;2024-02-14T04:44:57;24.33;;;15.60;;
24713;SDS011;12820;51.580;5.010;2024-02-14T04:50:00;23.92;;;16.63;;
24713;SDS011;12820;51.580;5.010;2024-02-14T04:55:02;23.23;;;16.38;;
24713;SDS011;12820;51.580;5.010;2024-02-14T05:00:05;24.83;;;16.77;;
24713;SDS011;12820;51.580;5.010;2024-02-14T05:17:51;26.50;;;17.90;;
24713;SDS011;12820;51.580;5.010;2024-02-14T05:22:54;23.48;;;18.55;;
24713;SDS011;12820;51.580;5.010;2024-02-14T05:27:56;25.10;;;17.67;;
24713;SDS011;12820;51.580;5.010;2024-02-14T05:32:58;24.02;;;17.90;;
24713;SDS011;12820;51.580;5.010;2024-02-14T05:38:01;24.85;;;17.83;;
24713;SDS011;12820;51.580;5.010;2024-02-14T05:43:03;25.25;;;18.52;;
24713;SDS011;12820;51.580;5.010;2024-02-14T05:48:05;25.02;;;17.85;;
24713;SDS011;12820;51.580;5.010;2024-02-14T05:53:08;25.60;;;18.60;;
24713;SDS011;12820;51.580;5.010;2024-02-14T05:58:10;31.92;;;20.15;;
24713;SDS011;12820;51.580;5.010;2024-02-14T06:03:13;31.88;;;21.02;;
24713;SDS011;12820;51.580;5.010;2024-02-14T06:08:15;35.15;;;20.70;;
24713;SDS011;12820;51.580;5.010;2024-02-14T06:13:18;33.17;;;22.10;;
24713;SDS011;12820;51.580;5.010;2024-02-14T06:18:21;33.00;;;22.58;;
24713;SDS011;12820;51.580;5.010;2024-02-14T06:23:23;43.05;;;23.75;;
24713;SDS011;12820;51.580;5.010;2024-02-14T06:28:25;36.90;;;23.20;;
24713;SDS011;12820;51.580;5.010;2024-02-14T06:33:28;36.72;;;23.08;;
24713;SDS011;12820;51.580;5.010;2024-02-14T06:38:31;38.22;;;23.17;;
24713;SDS011;12820;51.580;5.010;2024-02-14T06:43:33;36.20;;;22.58;;
24713;SDS011;12820;51.580;5.010;2024-02-14T06:48:35;36.97;;;22.85;;
24713;SDS011;12820;51.580;5.010;2024-02-14T06:53:38;41.17;;;22.67;;
24713;SDS011;12820;51.580;5.010;2024-02-14T06:58:41;40.10;;;22.80;;
24713;SDS011;12820;51.580;5.010;2024-02-14T07:03:43;39.03;;;24.10;;
24713;SDS011;12820;51.580;5.010;2024-02-14T07:08:47;34.67;;;23.60;;
24713;SDS011;12820;51.580;5.010;2024-02-14T07:13:50;39.35;;;23.58;;
24713;SDS011;12820;51.580;5.010;2024-02-14T07:18:53;39.00;;;24.70;;
24713;SDS011;12820;51.580;5.010;2024-02-14T07:23:57;44.28;;;25.10;;
24713;SDS011;12820;51.580;5.010;2024-02-14T07:29:00;37.38;;;24.58;;
24713;SDS011;12820;51.580;5.010;2024-02-14T07:34:05;44.42;;;24.95;;
24713;SDS011;12820;51.580;5.010;2024-02-14T07:39:11;46.45;;;23.02;;
24713;SDS011;12820;51.580;5.010;2024-02-14T07:44:13;35.83;;;21.77;;
24713;SDS011;12820;51.580;5.010;2024-02-14T07:49:15;34.88;;;22.55;;
24713;SDS011;12820;51.580;5.010;2024-02-14T07:54:18;37.10;;;21.20;;
24713;SDS011;12820;51.580;5.010;2024-02-14T07:59:21;34.85;;;21.65;;
24713;SDS011;12820;51.580;5.010;2024-02-14T08:51:13;28.98;;;17.30;;
24713;SDS011;12820;51.580;5.010;2024-02-14T08:58:14;33.20;;;17.00;;
24713;SDS011;12820;51.580;5.010;2024-02-14T09:09:09;23.52;;;16.45;;
24713;SDS011;12820;51.580;5.010;2024-02-14T09:14:12;22.90;;;14.10;;
24713;SDS011;12820;51.580;5.010;2024-02-14T09:19:14;18.77;;;14.30;;
24713;SDS011;12820;51.580;5.010;2024-02-14T09:24:18;21.50;;;14.25;;
24713;SDS011;12820;51.580;5.010;2024-02-14T09:29:21;21.10;;;13.98;;
24713;SDS011;12820;51.580;5.010;2024-02-14T09:34:23;22.15;;;14.80;;
24713;SDS011;12820;51.580;5.010;2024-02-14T09:39:27;26.67;;;15.75;;
24713;SDS011;12820;51.580;5.010;2024-02-14T09:44:29;26.63;;;15.02;;
24713;SDS011;12820;51.580;5.010;2024-02-14T09:49:34;22.27;;;14.85;;
24713;SDS011;12820;51.580;5.010;2024-02-14T09:54:38;24.40;;;14.63;;
24713;SDS011;12820;51.580;5.010;2024-02-14T09:59:41;19.48;;;13.98;;
24713;SDS011;12820;51.580;5.010;2024-02-14T10:12:14;21.90;;;13.32;;
24713;SDS011;12820;51.580;5.010;2024-02-14T10:18:02;21.52;;;12.85;;
24713;SDS011;12820;51.580;5.010;2024-02-14T10:23:07;17.77;;;12.25;;
24713;SDS011;12820;51.580;5.010;2024-02-14T10:28:13;20.63;;;14.05;;
24713;SDS011;12820;51.580;5.010;2024-02-14T10:33:18;17.02;;;13.30;;
24713;SDS011;12820;51.580;5.010;2024-02-14T10:38:32;19.02;;;14.10;;
24713;SDS011;12820;51.580;5.010;2024-02-14T10:43:41;23.38;;;14.35;;
24713;SDS011;12820;51.580;5.010;2024-02-14T10:48:44;20.05;;;13.15;;
24713;SDS011;12820;51.580;5.010;2024-02-14T11:13:54;15.18;;;11.35;;
24713;SDS011;12820;51.580;5.010;2024-02-14T11:19:14;16.25;;;12.15;;
24713;SDS011;12820;51.580;5.010;2024-02-14T12:05:31;18.75;;;10.93;;
24713;SDS011;12820;51.580;5.010;2024-02-14T12:17:06;19.90;;;10.52;;
24713;SDS011;12820;51.580;5.010;2024-02-14T12:22:10;11.88;;;9.15;;
24713;SDS011;12820;51.580;5.010;2024-02-14T12:27:34;11.25;;;8.93;;
24713;SDS011;12820;51.580;5.010;2024-02-14T12:32:38;10.73;;;9.27;;
24713;SDS011;12820;51.580;5.010;2024-02-14T12:37:42;10.00;;;8.93;;
24713;SDS011;12820;51.580;5.010;2024-02-14T12:42:46;11.73;;;9.13;;
24713;SDS011;12820;51.580;5.010;2024-02-14T12:47:53;11.50;;;9.10;;
24713;SDS011;12820;51.580;5.010;2024-02-14T12:52:56;12.18;;;9.52;;
24713;SDS011;12820;51.580;5.010;2024-02-14T12:58:01;13.18;;;9.80;;
24713;SDS011;12820;51.580;5.010;2024-02-14T13:03:06;13.48;;;10.10;;
24713;SDS011;12820;51.580;5.010;2024-02-14T13:08:11;12.30;;;10.25;;
24713;SDS011;12820;51.580;5.010;2024-02-14T13:24:27;15.25;;;11.75;;
24713;SDS011;12820;51.580;5.010;2024-02-14T13:29:32;13.23;;;11.05;;
24713;SDS011;12820;51.580;5.010;2024-02-14T13:48:02;21.05;;;12.88;;
24713;SDS011;12820;51.580;5.010;2024-02-14T13:53:10;15.10;;;12.13;;
24713;SDS011;12820;51.580;5.010;2024-02-14T13:58:12;18.23;;;13.52;;
24713;SDS011;12820;51.580;5.010;2024-02-14T14:03:18;17.42;;;12.68;;
24713;SDS011;12820;51.580;5.010;2024-02-14T14:08:21;15.43;;;12.43;;
24713;SDS011;12820;51.580;5.010;2024-02-14T14:13:23;14.93;;;12.05;;
24713;SDS011;12820;51.580;5.010;2024-02-14T14:18:25;16.05;;;11.80;;
24713;SDS011;12820;51.580;5.010;2024-02-14T14:29:20;15.77;;;11.93;;
24713;SDS011;12820;51.580;5.010;2024-02-14T14:34:22;18.83;;;11.82;;
24713;SDS011;12820;51.580;5.010;2024-02-14T14:39:26;18.35;;;11.85;;
24713;SDS011;12820;51.580;5.010;2024-02-14T14:44:32;15.55;;;11.05;;
24713;SDS011;12820;51.580;5.010;2024-02-14T14:49:37;17.20;;;11.80;;
24713;SDS011;12820;51.580;5.010;2024-02-14T14:54:41;16.23;;;11.38;;
24713;SDS011;12820;51.580;5.010;2024-02-14T14:59:46;17.38;;;11.50;;
24713;SDS011;12820;51.580;5.010;2024-02-14T15:04:50;17.63;;;11.40;;
24713;SDS011;12820;51.580;5.010;2024-02-14T15:09:54;13.15;;;10.90;;
24713;SDS011;12820;51.580;5.010;2024-02-14T15:14:58;17.15;;;11.20;;
24713;SDS011;12820;51.580;5.010;2024-02-14T15:20:02;18.55;;;12.77;;
24713;SDS011;12820;51.580;5.010;2024-02-14T16:03:28;17.90;;;13.77;;
24713;SDS011;12820;51.580;5.010;2024-02-14T16:08:32;18.30;;;13.82;;
24713;SDS011;12820;51.580;5.010;2024-02-14T16:25:32;17.25;;;13.73;;
24713;SDS011;12820;51.580;5.010;2024-02-14T16:30:37;16.73;;;13.63;;
24713;SDS011;12820;51.580;5.010;2024-02-14T16:35:39;19.73;;;13.85;;
24713;SDS011;12820;51.580;5.010;2024-02-14T16:40:43;19.38;;;13.95;;
24713;SDS011;12820;51.580;5.010;2024-02-14T16:45:48;17.00;;;12.68;;
24713;SDS011;12820;51.580;5.010;2024-02-14T17:17:04;28.50;;;15.95;;
24713;SDS011;12820;51.580;5.010;2024-02-14T17:22:06;23.50;;;15.40;;
24713;SDS011;12820;51.580;5.010;2024-02-14T17:27:25;25.10;;;15.85;;
24713;SDS011;12820;51.580;5.010;2024-02-14T17:32:27;24.58;;;16.67;;
24713;SDS011;12820;51.580;5.010;2024-02-14T17:37:41;28.42;;;16.45;;
24713;SDS011;12820;51.580;5.010;2024-02-14T17:42:43;28.58;;;17.00;;
24713;SDS011;12820;51.580;5.010;2024-02-14T17:47:46;25.27;;;17.10;;
24713;SDS011;12820;51.580;5.010;2024-02-14T17:52:48;26.98;;;15.95;;
24713;SDS011;12820;51.580;5.010;2024-02-14T17:57:51;25.77;;;16.88;;
24713;SDS011;12820;51.580;5.010;2024-02-14T18:02:55;30.23;;;18.05;;
24713;SDS011;12820;51.580;5.010;2024-02-14T18:07:58;25.92;;;16.08;;
24713;SDS011;12820;51.580;5.010;2024-02-14T18:13:00;22.38;;;16.45;;
24713;SDS011;12820;51.580;5.010;2024-02-14T18:18:06;24.10;;;16.02;;
24713;SDS011;12820;51.580;5.010;2024-02-14T18:38:25;28.35;;;18.20;;
24713;SDS011;12820;51.580;5.010;2024-02-14T19:06:02;34.22;;;20.75;;
24713;SDS011;12820;51.580;5.010;2024-02-14T19:11:05;32.25;;;19.80;;
24713;SDS011;12820;51.580;5.010;2024-02-14T19:16:08;41.35;;;21.90;;
24713;SDS011;12820;51.580;5.010;2024-02-14T19:21:24;36.53;;;22.00;;
24713;SDS011;12820;51.580;5.010;2024-02-14T19:26:27;37.03;;;22.58;;
24713;SDS011;12820;51.580;5.010;2024-02-14T19:31:29;39.50;;;24.70;;
24713;SDS011;12820;51.580;5.010;2024-02-14T19:36:32;34.55;;;23.45;;
24713;SDS011;12820;51.580;5.010;2024-02-14T19:41:37;41.85;;;23.30;;
24713;SDS011;12820;51.580;5.010;2024-02-14T19:46:40;38.90;;;23.90;;
24713;SDS011;12820;51.580;5.010;2024-02-14T19:51:42;39.05;;;24.52;;
24713;SDS011;12820;51.580;5.010;2024-02-14T19:56:45;48.05;;;25.48;;
24713;SDS011;12820;51.580;5.010;2024-02-14T20:01:48;45.03;;;26.25;;
24713;SDS011;12820;51.580;5.010;2024-02-14T20:06:54;40.45;;;25.98;;
24713;SDS011;12820;51.580;5.010;2024-02-14T20:11:58;46.05;;;27.00;;
24713;SDS011;12820;51.580;5.010;2024-02-14T20:17:01;41.38;;;25.13;;
24713;SDS011;12820;51.580;5.010;2024-02-14T20:22:04;43.60;;;25.35;;
24713;SDS011;12820;51.580;5.010;2024-02-14T20:27:06;44.83;;;25.42;;
24713;SDS011;12820;51.580;5.010;2024-02-14T20:32:10;41.50;;;25.02;;
24713;SDS011;12820;51.580;5.010;2024-02-14T20:37:13;39.40;;;23.88;;
24713;SDS011;12820;51.580;5.010;2024-02-14T20:42:15;44.47;;;25.17;;
24713;SDS011;12820;51.580;5.010;2024-02-14T20:47:17;40.53;;;25.63;;
24713;SDS011;12820;51.580;5.010;2024-02-14T20:52:19;42.25;;;25.55;;
24713;SDS011;12820;51.580;5.010;2024-02-14T20:57:22;42.78;;;25.38;;
24713;SDS011;12820;51.580;5.010;2024-02-14T21:02:25;38.30;;;24.48;;
24713;SDS011;12820;51.580;5.010;2024-02-14T21:07:27;42.28;;;27.27;;
24713;SDS011;12820;51.580;5.010;2024-02-14T21:12:29;43.05;;;27.08;;
24713;SDS011;12820;51.580;5.010;2024-02-14T21:17:31;44.58;;;27.75;;
24713;SDS011;12820;51.580;5.010;2024-02-14T21:34:01;58.58;;;33.15;;
24713;SDS011;12820;51.580;5.010;2024-02-14T21:39:07;60.67;;;31.75;;
24713;SDS011;12820;51.580;5.010;2024-02-14T21:44:13;61.78;;;32.92;;
24713;SDS011;12820;51.580;5.010;2024-02-14T21:49:16;60.28;;;31.88;;
24713;SDS011;12820;51.580;5.010;2024-02-14T21:54:22;60.85;;;32.92;;
24713;SDS011;12820;51.580;5.010;2024-02-14T21:59:24;57.58;;;30.70;;
24713;SDS011;12820;51.580;5.010;2024-02-14T22:04:26;63.85;;;32.00;;
24713;SDS011;12820;51.580;5.010;2024-02-14T22:09:28;50.08;;;29.88;;
24713;SDS011;12820;51.580;5.010;2024-02-14T22:14:31;56.13;;;30.55;;
24713;SDS011;12820;51.580;5.010;2024-02-14T22:19:34;53.67;;;29.45;;
24713;SDS011;12820;51.580;5.010;2024-02-14T22:24:40;55.15;;;31.00;;
24713;SDS011;12820;51.580;5.010;2024-02-14T22:29:42;60.15;;;31.92;;
24713;SDS011;12820;51.580;5.010;2024-02-14T22:34:45;59.38;;;31.75;;
24713;SDS011;12820;51.580;5.010;2024-02-14T22:39:47;61.80;;;32.33;;
24713;SDS011;12820;51.580;5.010;2024-02-14T22:44:50;57.95;;;32.13;;
24713;SDS011;12820;51.580;5.010;2024-02-14T22:49:53;65.45;;;31.70;;
24713;SDS011;12820;51.580;5.010;2024-02-14T22:54:55;54.20;;;30.10;;
24713;SDS011;12820;51.580;5.010;2024-02-14T22:59:58;59.33;;;29.42;;
24713;SDS011;12820;51.580;5.010;2024-02-14T23:16:47;44.10;;;25.92;;
24713;SDS011;12820;51.580;5.010;2024-02-14T23:21:49;46.85;;;24.30;;
24713;SDS011;12820;51.580;5.010;2024-02-14T23:26:51;56.05;;;24.30;;
24713;SDS011;12820;51.580;5.010;2024-02-14T23:31:54;56.75;;;23.52;;
24713;SDS011;12820;51.580;5.010;2024-02-14T23:36:56;43.08;;;21.83;;
24713;SDS011;12820;51.580;5.010;2024-02-14T23:42:00;46.85;;;22.02;;
24713;SDS011;12820;51.580;5.010;2024-02-14T23:47:04;45.30;;;21.55;;
24713;SDS011;12820;51.580;5.010;2024-02-14T23:52:07;48.58;;;20.75;;
24713;SDS011;12820;51.580;5.010;2024-02-14T23:57:09;43.65;;;20.40;;
